Time;durP1;ratioP1;P1;durP2;ratioP2;P2;SDS_P1;SDS_P2;PMS_P1;PMS_P2;Temp;Humidity;BMP_temperature;BMP_pressure;BME280_temperature;BME280_humidity;BME280_pressure;Samples;Min_cycle;Max_cycle;Signal;HPM_P1;HPM_P2
2023/06/03 00:02:04;;;;;;;15.43;6.18;;;;;;;13.14;94.91;101911.91;5077841;28;20456;-86
2023/06/03 00:04:29;;;;;;;18.63;6.47;;;;;;;13.18;94.24;101915.84;5078043;28;20101;-86
2023/06/03 00:06:56;;;;;;;14.57;7.13;;;;;;;13.10;94.09;101906.00;5077284;28;20104;-86
2023/06/03 00:09:21;;;;;;;17.57;6.47;;;;;;;13.09;94.54;101907.03;5077557;28;20050;-86
2023/06/03 00:11:47;;;;;;;13.60;6.88;;;;;;;13.06;94.55;101904.72;5077295;28;20452;-86
2023/06/03 00:14:12;;;;;;;10.17;5.73;;;;;;;13.02;94.93;101898.03;5077222;28;20137;-86
2023/06/03 00:16:46;;;;;;;13.47;6.47;;;;;;;13.06;94.63;101901.16;5077457;28;20050;-86
2023/06/03 00:19:14;;;;;;;14.25;6.03;;;;;;;12.97;94.57;101903.25;5077721;28;20020;-85
2023/06/03 00:21:49;;;;;;;17.75;7.28;;;;;;;12.94;94.88;101895.50;5044675;28;20051;-86
2023/06/03 00:24:31;;;;;;;13.85;6.50;;;;;;;12.93;94.38;101913.72;5051740;28;20049;-86
2023/06/03 00:30:21;;;;;;;15.38;6.72;;;;;;;12.87;94.18;101919.13;5052795;28;20393;-86
2023/06/03 00:36:10;;;;;;;11.30;6.43;;;;;;;12.69;93.08;101911.53;5052938;28;20491;-86
2023/06/03 00:38:38;;;;;;;17.00;6.45;;;;;;;12.71;92.55;101913.03;5052468;28;20123;-86
2023/06/03 00:41:03;;;;;;;13.95;6.53;;;;;;;12.70;92.51;101907.78;5037012;28;20032;-86
2023/06/03 00:43:31;;;;;;;15.40;6.50;;;;;;;12.61;92.62;101899.78;5019283;28;20428;-86
2023/06/03 00:45:56;;;;;;;15.13;7.05;;;;;;;12.62;92.31;101911.50;5036384;28;20064;-85
2023/06/03 00:48:53;;;;;;;21.07;6.30;;;;;;;12.63;91.57;101921.34;5019492;28;20400;-85
2023/06/03 00:55:16;;;;;;;14.02;6.38;;;;;;;12.61;92.46;101916.13;5055471;28;20055;-85
2023/06/03 01:01:28;;;;;;;12.48;6.15;;;;;;;12.54;92.18;101919.84;5074527;28;20507;-86
2023/06/03 01:17:57;;;;;;;11.27;5.70;;;;;;;12.32;91.44;101919.94;5012985;28;20175;-85
2023/06/03 01:23:57;;;;;;;15.30;6.13;;;;;;;12.25;92.23;101916.34;5012555;28;20033;-85
2023/06/03 01:29:47;;;;;;;16.02;6.10;;;;;;;12.16;91.74;101915.66;5012319;28;20036;-85
2023/06/03 01:35:47;;;;;;;12.93;6.03;;;;;;;12.07;92.62;101909.53;5012324;28;20382;-85
2023/06/03 01:41:46;;;;;;;18.40;6.47;;;;;;;12.06;92.31;101910.59;5012189;28;20061;-85
2023/06/03 01:47:34;;;;;;;14.32;6.32;;;;;;;11.97;92.44;101910.94;5073431;28;20047;-86
2023/06/03 01:49:59;;;;;;;14.23;6.27;;;;;;;11.87;nan;101906.66;5056338;28;20108;-85
2023/06/03 01:52:26;;;;;;;17.08;6.35;;;;;;;11.91;92.59;101920.69;5038850;28;20052;-86
2023/06/03 01:54:51;;;;;;;12.30;5.60;;;;;;;11.91;92.96;101931.56;5039486;28;20495;-86
2023/06/03 01:57:18;;;;;;;13.00;6.50;;;;;;;11.83;92.65;101909.97;5055522;28;20029;-86
2023/06/03 01:59:43;;;;;;;15.13;6.40;;;;;;;11.77;92.76;101908.88;5073482;28;20024;-85
2023/06/03 02:02:09;;;;;;;13.50;6.07;;;;;;;11.72;92.95;101903.19;5073786;28;20028;-86
2023/06/03 02:04:34;;;;;;;19.08;6.03;;;;;;;11.71;93.17;101907.78;5039114;28;20045;-85
2023/06/03 02:07:00;;;;;;;15.47;6.00;;;;;;;11.71;92.83;101904.25;5055933;28;20036;-85
2023/06/03 02:09:29;;;;;;;11.53;5.80;;;;;;;11.74;92.61;101918.28;5055584;28;20043;-85
2023/06/03 02:11:59;;;;;;;13.95;6.45;;;;;;;11.64;93.08;101912.34;5039261;28;20403;-85
2023/06/03 02:17:46;;;;;;;14.82;6.13;;;;;;;11.65;92.36;101911.31;5073544;28;20121;-86
2023/06/03 02:20:11;;;;;;;13.80;5.60;;;;;;;11.59;93.01;101904.78;5038834;28;20434;-85
2023/06/03 02:22:37;;;;;;;15.80;6.37;;;;;;;11.61;93.47;101917.34;5038538;28;20090;-85
2023/06/03 02:25:06;;;;;;;10.70;5.37;;;;;;;11.55;92.99;101908.91;5054892;28;20160;-86
2023/06/03 02:30:53;;;;;;;12.15;5.68;;;;;;;11.49;93.00;101908.88;5073387;28;20491;-85
2023/06/03 02:33:18;;;;;;;11.80;5.53;;;;;;;11.45;93.33;101904.84;5055546;28;20128;-85
2023/06/03 02:35:44;;;;;;;13.23;5.53;;;;;;;11.44;93.31;101900.44;5073313;28;20038;-85
2023/06/03 02:38:09;;;;;;;11.80;6.28;;;;;;;11.45;93.46;101913.00;5055880;28;20037;-85
2023/06/03 02:40:35;;;;;;;16.70;6.10;;;;;;;11.43;93.59;101909.63;5072919;28;20032;-85
2023/06/03 02:43:00;;;;;;;12.53;5.50;;;;;;;11.41;93.48;101905.25;5040191;28;20043;-85
2023/06/03 02:45:25;;;;;;;16.20;5.77;;;;;;;11.36;93.87;101906.88;5059012;28;20035;-85
2023/06/03 02:47:51;;;;;;;8.97;5.40;;;;;;;11.39;93.69;101917.34;5059180;28;20033;-85
2023/06/03 02:50:16;;;;;;;14.98;5.40;;;;;;;11.32;93.63;101905.56;5042165;28;20048;-85
2023/06/03 02:52:42;;;;;;;11.90;5.20;;;;;;;11.38;93.88;101919.22;5058852;28;20040;-85
2023/06/03 02:55:11;;;;;;;9.60;5.50;;;;;;;11.30;94.16;101913.09;5059141;28;20037;-85
2023/06/03 03:00:58;;;;;;;7.82;5.25;;;;;;;11.35;94.33;101916.03;5076782;28;20083;-85
2023/06/03 03:03:24;;;;;;;12.27;5.80;;;;;;;11.37;95.10;101914.81;5058534;28;20032;-85
2023/06/03 03:05:51;;;;;;;13.05;5.82;;;;;;;11.39;95.61;101911.91;5042577;28;20044;-85
2023/06/03 03:08:17;;;;;;;12.82;5.50;;;;;;;11.37;95.33;101908.56;5042084;28;20460;-85
2023/06/03 03:10:42;;;;;;;12.60;5.30;;;;;;;11.37;95.57;101919.44;5041495;28;20039;-86
2023/06/03 03:13:11;;;;;;;13.27;5.37;;;;;;;11.32;94.50;101909.13;5058243;28;20071;-85
2023/06/03 03:15:36;;;;;;;7.95;5.03;;;;;;;11.29;95.18;101912.22;5076396;28;20453;-86
2023/06/03 03:18:01;;;;;;;12.13;5.83;;;;;;;11.30;95.27;101918.53;5058249;28;20120;-86
2023/06/03 03:20:29;;;;;;;12.43;5.43;;;;;;;11.24;95.57;101914.69;5041515;28;20032;-85
2023/06/03 03:22:54;;;;;;;8.93;5.80;;;;;;;11.24;96.31;101926.41;5041942;28;20036;-85
2023/06/03 03:25:21;;;;;;;13.68;6.32;;;;;;;11.25;96.13;101924.53;5057972;28;20056;-85
2023/06/03 03:27:46;;;;;;;11.55;5.90;;;;;;;11.16;95.80;101912.09;5058784;28;20503;-86
2023/06/03 03:30:14;;;;;;;15.80;5.90;;;;;;;11.17;96.69;101925.47;5058750;28;20028;-86
2023/06/03 03:32:40;;;;;;;10.63;5.65;;;;;;;11.14;96.27;101923.16;5075790;28;20163;-86
2023/06/03 03:35:13;;;;;;;11.23;5.63;;;;;;;11.17;96.38;101927.38;5041473;28;20123;-86
2023/06/03 03:37:45;;;;;;;14.88;6.07;;;;;;;11.16;96.59;101931.09;5058316;28;20020;-85
2023/06/03 03:40:18;;;;;;;14.50;5.80;;;;;;;11.13;96.26;101926.94;5058267;28;20067;-86
2023/06/03 03:42:52;;;;;;;12.10;5.63;;;;;;;11.08;96.69;101920.38;5075692;28;20039;-86
2023/06/03 03:45:19;;;;;;;11.27;6.00;;;;;;;11.11;96.91;101920.81;5057881;28;20381;-86
2023/06/03 03:47:49;;;;;;;13.63;5.87;;;;;;;11.11;97.35;101923.53;5076405;28;20048;-86
2023/06/03 03:50:48;;;;;;;13.98;5.57;;;;;;;11.16;96.15;101931.09;5040987;28;20039;-86
2023/06/03 03:53:25;;;;;;;14.38;5.78;;;;;;;11.11;96.16;101923.53;5048893;28;20037;-85
2023/06/03 03:55:52;;;;;;;17.58;6.00;;;;;;;11.14;95.84;101935.91;5057220;28;20130;-85
2023/06/03 03:58:26;;;;;;;9.30;5.38;;;;;;;11.08;95.44;101929.34;5057998;28;20040;-86
2023/06/03 04:00:53;;;;;;;13.87;5.80;;;;;;;11.09;95.13;101933.75;5075637;28;20031;-86
2023/06/03 04:03:20;;;;;;;12.57;5.90;;;;;;;11.13;95.46;101932.34;5057855;28;20468;-86
2023/06/03 04:05:47;;;;;;;9.48;5.38;;;;;;;11.10;94.76;101921.03;5057534;28;20059;-86
2023/06/03 04:08:38;;;;;;;12.82;5.45;;;;;;;11.17;94.39;101932.81;5057514;28;20037;-85
2023/06/03 04:11:05;;;;;;;8.88;5.13;;;;;;;11.17;94.41;101922.75;5057867;28;20535;-85
2023/06/03 04:13:36;;;;;;;10.93;5.50;;;;;;;11.17;93.99;101916.50;5040850;28;20102;-86
2023/06/03 04:16:10;;;;;;;12.27;4.97;;;;;;;11.17;93.33;101916.50;5057634;28;20135;-86
2023/06/03 04:18:42;;;;;;;12.10;6.00;;;;;;;11.23;93.30;101927.44;5075275;28;20417;-86
2023/06/03 04:21:14;;;;;;;11.82;5.53;;;;;;;11.28;93.24;101934.16;5056932;28;20025;-86
2023/06/03 04:23:40;;;;;;;9.63;5.28;;;;;;;11.28;93.31;101932.28;5075277;28;20035;-85
2023/06/03 04:26:09;;;;;;;8.90;4.90;;;;;;;11.32;93.22;101932.75;5075520;28;20392;-85
2023/06/03 04:28:37;;;;;;;9.73;5.28;;;;;;;11.34;92.43;101931.53;5057105;28;20472;-86
2023/06/03 04:31:03;;;;;;;11.43;5.43;;;;;;;11.39;93.56;101933.66;5057834;28;20468;-86
2023/06/03 04:33:28;;;;;;;12.73;5.50;;;;;;;11.46;93.41;101945.44;5056977;28;20035;-85
2023/06/03 04:35:54;;;;;;;11.73;6.13;;;;;;;11.52;92.60;101946.53;5057050;28;20530;-85
2023/06/03 04:38:19;;;;;;;10.47;5.63;;;;;;;11.56;92.29;101953.25;5040698;28;20279;-85
2023/06/03 04:40:46;;;;;;;7.90;5.03;;;;;;;11.57;91.94;101944.06;5040289;28;20495;-86
2023/06/03 04:43:14;;;;;;;8.43;5.43;;;;;;;11.56;91.83;101937.78;5040616;28;20033;-86
2023/06/03 04:45:39;;;;;;;9.18;4.88;;;;;;;11.63;91.49;101940.53;5074776;28;20020;-86
2023/06/03 04:48:08;;;;;;;10.13;5.30;;;;;;;11.67;91.18;101944.56;5056784;28;20025;-86
2023/06/03 04:50:35;;;;;;;11.90;5.60;;;;;;;11.72;91.33;101947.53;5056760;28;20040;-85
2023/06/03 04:53:01;;;;;;;15.63;4.97;;;;;;;11.74;90.75;101947.34;5040209;28;20218;-85
2023/06/03 04:55:27;;;;;;;8.02;5.32;;;;;;;11.74;90.35;101945.47;5056387;28;20029;-85
2023/06/03 04:57:54;;;;;;;9.07;4.93;;;;;;;11.76;89.50;101940.66;5040291;28;20033;-86
2023/06/03 05:00:22;;;;;;;10.25;5.30;;;;;;;11.86;89.52;101950.38;5056196;28;20078;-85
2023/06/03 05:02:59;;;;;;;9.27;5.10;;;;;;;11.85;89.66;101948.69;5040679;28;20530;-86
2023/06/03 05:05:25;;;;;;;7.90;5.15;;;;;;;11.92;88.83;101952.31;5057914;28;20083;-86
2023/06/03 05:07:51;;;;;;;8.95;4.93;;;;;;;12.00;88.38;101959.50;5074360;28;20136;-86
2023/06/03 05:10:19;;;;;;;8.70;4.97;;;;;;;12.02;87.49;101955.56;5056716;28;20055;-85
2023/06/03 05:12:45;;;;;;;12.40;5.00;;;;;;;11.98;87.67;101945.25;5039896;28;20473;-86
2023/06/03 05:15:11;;;;;;;11.55;4.93;;;;;;;12.01;86.70;101948.41;5074478;28;20102;-85
2023/06/03 05:17:40;;;;;;;11.23;5.07;;;;;;;12.10;86.13;101952.66;5056070;28;20607;-85
2023/06/03 05:20:09;;;;;;;9.52;4.55;;;;;;;12.16;86.34;101958.34;5073859;28;20032;-86
2023/06/03 05:22:35;;;;;;;9.40;4.50;;;;;;;12.19;86.51;101952.53;5074085;28;20132;-86
2023/06/03 05:25:05;;;;;;;9.05;4.80;;;;;;;12.25;85.69;101960.75;5039149;28;20056;-86
2023/06/03 05:27:30;;;;;;;6.80;4.50;;;;;;;12.29;84.67;101956.56;5055815;28;20032;-86
2023/06/03 05:29:56;;;;;;;6.07;4.30;;;;;;;12.33;82.99;101953.44;5023737;28;20106;-85
2023/06/03 05:32:21;;;;;;;7.22;4.28;;;;;;;12.36;82.47;101951.16;5074028;28;20028;-85
2023/06/03 05:34:49;;;;;;;8.40;4.27;;;;;;;12.41;82.91;101956.00;5039443;28;20029;-85
2023/06/03 05:37:15;;;;;;;10.02;3.75;;;;;;;12.43;82.40;101954.78;5056128;28;20036;-86
2023/06/03 05:39:48;;;;;;;5.77;3.70;;;;;;;12.53;81.90;101948.13;5039265;28;20578;-87
2023/06/03 05:42:19;;;;;;;6.35;3.47;;;;;;;12.60;82.11;101940.81;5023058;28;20037;-87
2023/06/03 05:44:52;;;;;;;6.07;3.83;;;;;;;12.66;81.11;101944.63;5023008;28;20060;-86
2023/06/03 05:47:34;;;;;;;5.85;3.85;;;;;;;12.71;80.26;101945.69;5040036;28;20035;-87
2023/06/03 05:50:09;;;;;;;10.53;3.83;;;;;;;12.77;80.06;101931.25;5040166;28;20058;-87
2023/06/03 05:52:35;;;;;;;6.72;3.40;;;;;;;12.84;78.41;101933.16;5055160;28;20083;-85
2023/06/03 05:55:00;;;;;;;6.90;3.58;;;;;;;12.86;77.75;101936.50;5056446;28;20141;-86
2023/06/03 05:57:31;;;;;;;8.53;3.80;;;;;;;12.91;77.38;101931.31;5038576;28;20098;-85
2023/06/03 05:59:57;;;;;;;15.85;3.85;;;;;;;12.95;76.19;101938.03;5055688;28;20415;-84
2023/06/03 06:02:25;;;;;;;4.13;3.00;;;;;;;13.01;75.83;101948.09;5055823;28;20089;-84
2023/06/03 06:04:52;;;;;;;8.27;3.25;;;;;;;13.02;75.73;101948.94;5073583;28;20108;-85
2023/06/03 06:07:18;;;;;;;5.80;3.22;;;;;;;13.12;75.29;101963.88;5055517;28;20075;-85
2023/06/03 06:09:50;;;;;;;8.73;3.47;;;;;;;13.14;74.50;101945.41;5055388;28;20140;-84
2023/06/03 06:12:16;;;;;;;6.88;3.22;;;;;;;13.25;73.44;101945.88;5055150;28;20135;-84
2023/06/03 06:14:42;;;;;;;6.20;3.00;;;;;;;13.37;73.16;101948.84;5073198;28;20021;-85
2023/06/03 06:17:20;;;;;;;7.67;2.93;;;;;;;13.38;71.91;101935.00;5055760;28;20085;-84
2023/06/03 06:19:52;;;;;;;6.85;2.70;;;;;;;13.46;72.17;101943.00;5059549;28;20040;-85
2023/06/03 06:22:17;;;;;;;8.57;3.22;;;;;;;13.53;71.64;101955.81;5059710;28;20036;-85
2023/06/03 06:24:45;;;;;;;9.63;2.97;;;;;;;13.59;71.09;101952.22;5058898;28;20044;-84
2023/06/03 06:27:12;;;;;;;7.40;3.10;;;;;;;13.65;69.78;101960.41;5059679;28;20048;-85
2023/06/03 06:29:40;;;;;;;5.00;2.50;;;;;;;13.64;68.96;101961.47;5076992;28;20385;-85
2023/06/03 06:32:06;;;;;;;5.20;2.75;;;;;;;13.69;69.07;101956.22;5077577;28;20035;-85
2023/06/03 06:34:34;;;;;;;4.57;2.80;;;;;;;13.75;69.33;101953.72;5059855;28;20123;-86
2023/06/03 06:37:00;;;;;;;7.32;3.22;;;;;;;13.78;68.22;101953.28;5058417;28;20040;-85
2023/06/03 06:39:46;;;;;;;5.37;2.60;;;;;;;13.95;68.51;101967.34;5058862;28;20214;-85
2023/06/03 06:42:28;;;;;;;5.93;2.80;;;;;;;14.00;68.13;101954.75;5076808;28;20465;-85
2023/06/03 06:44:53;;;;;;;4.97;2.78;;;;;;;14.09;66.50;101965.44;5059284;28;20034;-85
2023/06/03 06:47:23;;;;;;;6.17;2.80;;;;;;;14.18;66.60;101964.16;5059035;28;20024;-84
2023/06/03 06:49:49;;;;;;;5.88;2.97;;;;;;;14.21;66.37;101966.47;5058958;28;20029;-84
2023/06/03 06:52:15;;;;;;;5.25;2.60;;;;;;;14.24;64.93;101962.50;5059530;28;20028;-84
2023/06/03 06:54:41;;;;;;;8.05;3.03;;;;;;;14.29;64.40;101963.53;5076538;28;20038;-84
2023/06/03 06:57:07;;;;;;;4.17;2.37;;;;;;;14.35;62.79;101965.41;5058814;28;20028;-85
2023/06/03 06:59:33;;;;;;;5.40;2.65;;;;;;;14.38;62.83;101959.50;5058926;28;20376;-84
2023/06/03 07:02:01;;;;;;;6.03;2.57;;;;;;;14.46;63.74;101963.91;5058483;28;20115;-85
2023/06/03 07:04:30;;;;;;;9.90;3.07;;;;;;;14.55;62.87;101956.31;5076306;28;20270;-85
2023/06/03 07:06:55;;;;;;;5.00;2.80;;;;;;;14.64;61.71;101959.69;5058350;28;20104;-84
2023/06/03 07:09:21;;;;;;;12.43;2.90;;;;;;;14.76;61.22;101962.59;5058618;28;20036;-85
2023/06/03 07:11:47;;;;;;;6.93;2.90;;;;;;;14.82;60.50;101959.84;5041702;28;20036;-84
2023/06/03 07:14:22;;;;;;;9.13;2.80;;;;;;;14.86;59.45;101963.78;5058541;28;20027;-84
2023/06/03 07:16:48;;;;;;;5.25;2.80;;;;;;;14.90;59.83;101956.00;5058784;28;20422;-84
2023/06/03 07:19:13;;;;;;;6.90;2.60;;;;;;;14.98;59.27;101957.66;5058332;28;20032;-84
2023/06/03 07:21:41;;;;;;;4.60;2.43;;;;;;;15.02;58.14;101948.78;5058270;28;20040;-84
2023/06/03 07:24:10;;;;;;;9.75;2.50;;;;;;;15.12;59.54;101947.47;5058148;28;20031;-85
2023/06/03 07:26:38;;;;;;;4.13;2.50;;;;;;;15.26;58.50;101963.59;5058418;28;20052;-84
2023/06/03 07:29:04;;;;;;;6.35;2.53;;;;;;;15.30;58.52;101952.22;5041282;28;20064;-84
2023/06/03 07:31:35;;;;;;;7.33;2.40;;;;;;;15.40;57.85;101967.06;5058119;28;20059;-84
2023/06/03 07:34:08;;;;;;;4.70;1.98;;;;;;;15.43;56.35;101961.16;5076461;28;20020;-84
2023/06/03 07:36:34;;;;;;;4.93;1.95;;;;;;;15.41;56.22;101949.63;5058056;28;20106;-84
2023/06/03 07:39:06;;;;;;;4.15;1.88;;;;;;;15.53;54.83;101947.00;5057639;28;20029;-84
2023/06/03 07:41:45;;;;;;;4.43;1.80;;;;;;;15.64;55.04;101945.44;5075597;28;20476;-84
2023/06/03 07:44:13;;;;;;;3.60;1.90;;;;;;;15.79;53.44;101947.88;5057532;28;20021;-84
2023/06/03 07:47:12;;;;;;;7.53;2.00;;;;;;;15.83;53.26;101948.28;5057936;28;20445;-87
2023/06/03 07:50:02;;;;;;;6.95;1.75;;;;;;;15.95;53.00;101955.53;5056434;28;20198;-84
2023/06/03 07:52:39;;;;;;;3.63;1.88;;;;;;;16.02;52.41;101957.34;5057410;28;20043;-85
2023/06/03 07:55:08;;;;;;;4.67;1.80;;;;;;;16.05;49.88;101951.47;5042395;28;20036;-83
2023/06/03 07:57:46;;;;;;;4.20;1.80;;;;;;;16.16;52.13;101956.16;5057474;28;20487;-88
2023/06/03 08:00:15;;;;;;;5.40;1.90;;;;;;;16.28;50.17;101957.13;5058218;28;20376;-87
2023/06/03 08:02:40;;;;;;;5.10;2.30;;;;;;;16.33;48.60;101955.56;5075841;28;20029;-86
2023/06/03 08:05:06;;;;;;;3.50;1.60;;;;;;;16.37;48.29;101956.81;5057620;28;20059;-86
2023/06/03 08:07:32;;;;;;;2.08;1.23;;;;;;;16.48;47.20;101967.84;5057330;28;20046;-85
2023/06/03 08:09:58;;;;;;;5.40;1.70;;;;;;;16.50;47.23;101959.41;5040523;28;20468;-86
2023/06/03 08:12:29;;;;;;;5.83;1.63;;;;;;;16.61;47.83;101955.91;5058252;28;20032;-85
2023/06/03 08:14:55;;;;;;;3.58;1.27;;;;;;;16.65;46.96;101948.91;5057427;28;20127;-86
2023/06/03 08:17:37;;;;;;;4.03;1.33;;;;;;;16.84;46.33;101965.31;5074918;28;20266;-86
2023/06/03 08:20:08;;;;;;;5.15;1.48;;;;;;;16.89;45.02;101956.44;5057206;28;20040;-86
2023/06/03 08:22:42;;;;;;;5.03;1.15;;;;;;;16.93;44.36;101952.16;5075286;28;20036;-86
2023/06/03 08:29:06;;;;;;;2.05;0.93;;;;;;;17.19;43.24;101953.72;4993814;28;20122;-86
2023/06/03 08:31:32;;;;;;;3.17;1.23;;;;;;;17.27;41.60;101952.53;4974148;28;20035;-86
2023/06/03 08:33:58;;;;;;;5.28;1.17;;;;;;;17.28;42.21;101948.72;5061987;28;20032;-86
2023/06/03 08:36:24;;;;;;;4.93;1.23;;;;;;;17.36;40.89;101941.00;5040744;28;20047;-86
2023/06/03 08:38:53;;;;;;;2.83;1.30;;;;;;;17.44;39.91;101953.53;5075351;28;20099;-86
2023/06/03 08:41:21;;;;;;;5.22;1.33;;;;;;;17.55;40.75;101949.16;5056517;28;20083;-86
2023/06/03 08:43:53;;;;;;;4.68;1.10;;;;;;;17.58;39.84;101939.63;5074380;28;20077;-87
2023/06/03 08:47:15;;;;;;;6.88;1.33;;;;;;;17.64;41.96;101942.25;5056277;28;20032;-85
2023/06/03 08:49:57;;;;;;;5.67;1.30;;;;;;;17.75;41.07;101937.84;5039234;28;20079;-86
2023/06/03 08:52:26;;;;;;;3.70;1.13;;;;;;;17.80;40.22;101939.88;5074474;28;20031;-85
2023/06/03 08:54:56;;;;;;;2.88;1.20;;;;;;;17.89;39.75;101938.44;5074488;28;20037;-86
2023/06/03 08:57:22;;;;;;;3.15;1.38;;;;;;;17.99;40.33;101954.38;5040475;28;20040;-86
2023/06/03 08:59:52;;;;;;;5.85;1.20;;;;;;;18.05;38.90;101958.91;5056520;28;20361;-88
2023/06/03 09:02:18;;;;;;;2.57;1.10;;;;;;;18.09;39.62;101948.28;5039998;28;20047;-85
2023/06/03 09:04:47;;;;;;;4.07;1.00;;;;;;;18.16;38.56;101948.97;5074219;28;20033;-85
2023/06/03 09:07:13;;;;;;;6.60;1.10;;;;;;;18.20;38.11;101948.28;5074310;28;20052;-85
2023/06/03 09:09:41;;;;;;;5.60;1.45;;;;;;;18.27;37.82;101947.31;5055987;28;20078;-85
2023/06/03 09:12:07;;;;;;;4.50;1.30;;;;;;;18.33;38.36;101951.84;5056125;28;20025;-85
2023/06/03 09:14:33;;;;;;;4.13;1.10;;;;;;;18.32;37.73;101937.28;5055816;28;20059;-85
2023/06/03 09:17:00;;;;;;;3.70;1.05;;;;;;;18.38;37.75;101947.31;5056400;28;20028;-86
2023/06/03 09:19:27;;;;;;;3.05;1.00;;;;;;;18.54;37.40;101950.38;5055645;28;20032;-86
2023/06/03 09:21:56;;;;;;;2.20;1.05;;;;;;;18.62;36.96;101946.44;5055516;28;20458;-86
2023/06/03 09:24:22;;;;;;;2.80;1.00;;;;;;;18.68;36.76;101949.03;5055925;28;20036;-86
2023/06/03 09:26:52;;;;;;;4.55;0.90;;;;;;;18.70;35.96;101955.09;5055904;28;20063;-86
2023/06/03 09:29:18;;;;;;;6.88;1.30;;;;;;;18.80;35.57;101959.16;5073875;28;20110;-86
2023/06/03 09:31:43;;;;;;;4.03;1.20;;;;;;;18.88;35.36;101950.56;5039564;28;20036;-86
2023/06/03 09:34:10;;;;;;;11.93;1.20;;;;;;;18.99;35.70;101941.44;5055589;28;20041;-86
2023/06/03 09:36:46;;;;;;;5.05;1.48;;;;;;;19.08;35.68;101945.44;5022598;28;20542;-86
2023/06/03 09:39:16;;;;;;;4.05;0.88;;;;;;;19.17;33.53;101939.56;5055649;28;20040;-86
2023/06/03 09:41:45;;;;;;;5.80;1.40;;;;;;;19.19;33.65;101946.50;5039442;28;20431;-86
2023/06/03 09:44:13;;;;;;;4.50;1.00;;;;;;;19.30;33.67;101947.50;5056015;28;20025;-86
2023/06/03 09:46:48;;;;;;;4.05;1.10;;;;;;;19.35;33.90;101939.34;5056097;28;20439;-86
2023/06/03 09:49:21;;;;;;;6.53;1.33;;;;;;;19.40;34.10;101930.31;5055886;28;20064;-86
2023/06/03 09:51:51;;;;;;;2.40;0.93;;;;;;;19.62;34.37;101935.94;5072767;28;20040;-86
2023/06/03 09:54:18;;;;;;;2.33;1.07;;;;;;;19.65;33.63;101946.47;5038829;28;20032;-86
2023/06/03 09:56:45;;;;;;;5.50;1.10;;;;;;;19.72;32.66;101943.53;5056325;28;20024;-88
2023/06/03 09:59:15;;;;;;;3.72;1.17;;;;;;;19.80;31.78;101955.00;5073484;28;20032;-85
2023/06/03 10:01:42;;;;;;;4.25;1.02;;;;;;;19.86;32.08;101947.66;5073320;28;20036;-86
2023/06/03 10:04:07;;;;;;;3.25;1.00;;;;;;;19.94;31.97;101940.88;5073462;28;20021;-86
2023/06/03 10:06:37;;;;;;;2.20;0.90;;;;;;;20.05;30.67;101939.97;5055452;28;20033;-86
2023/06/03 10:09:25;;;;;;;4.57;1.10;;;;;;;20.13;31.34;101946.94;5055463;28;20020;-86
2023/06/03 10:11:56;;;;;;;5.30;1.00;;;;;;;20.16;30.31;101935.44;5073799;28;20055;-86
2023/06/03 10:14:25;;;;;;;3.40;0.80;;;;;;;20.34;29.66;101945.31;5073580;28;20455;-86
2023/06/03 10:17:04;;;;;;;5.82;1.02;;;;;;;20.46;30.41;101937.78;5073350;28;20028;-86
2023/06/03 10:19:35;;;;;;;2.00;1.00;;;;;;;20.63;30.28;101940.47;5055570;28;20069;-86
2023/06/03 10:22:04;;;;;;;1.67;0.80;;;;;;;20.80;29.09;101945.94;5073170;28;20032;-86
2023/06/03 10:24:31;;;;;;;3.47;0.93;;;;;;;20.90;28.03;101930.59;5055320;28;20102;-86
2023/06/03 10:27:00;;;;;;;4.45;1.00;;;;;;;21.03;28.66;101932.94;5038809;28;20115;-86
2023/06/03 10:29:29;;;;;;;2.70;0.90;;;;;;;21.17;28.47;101939.72;5034981;28;20071;-87
2023/06/03 10:31:57;;;;;;;2.83;0.90;;;;;;;21.39;28.53;101947.09;5035094;28;20393;-90
2023/06/03 10:34:23;;;;;;;2.72;1.00;;;;;;;21.51;28.68;101935.91;5035599;28;20029;-87
2023/06/03 10:37:02;;;;;;;3.58;1.00;;;;;;;21.68;28.02;101936.59;5052962;28;20536;-89
2023/06/03 10:39:32;;;;;;;2.97;0.90;;;;;;;21.85;27.81;101919.91;5035327;28;20084;-89
2023/06/03 10:42:03;;;;;;;2.58;0.93;;;;;;;22.00;28.28;101927.47;5053089;28;20025;-88
2023/06/03 10:44:30;;;;;;;2.83;0.90;;;;;;;22.25;28.28;101934.25;5053397;28;20040;-89
2023/06/03 10:47:01;;;;;;;3.63;1.30;;;;;;;22.48;26.95;101940.47;5052629;28;20027;-89
2023/06/03 10:49:34;;;;;;;3.20;1.00;;;;;;;22.57;26.12;101936.91;5034657;28;20037;-89
2023/06/03 10:52:14;;;;;;;4.13;1.00;;;;;;;22.65;26.42;101930.03;5052616;28;20461;-89
2023/06/03 10:55:16;;;;;;;3.60;1.00;;;;;;;22.99;27.22;101943.41;5053288;28;20029;-92
2023/06/03 10:57:59;;;;;;;2.47;0.90;;;;;;;23.23;26.84;101929.09;5035117;28;20037;-91
2023/06/03 11:00:55;;;;;;;3.35;1.05;;;;;;;23.58;26.85;101933.81;5053763;28;20025;-93
2023/06/03 11:03:22;;;;;;;2.78;0.90;;;;;;;23.80;24.92;101922.44;5043169;28;20043;-93
2023/06/03 11:05:48;;;;;;;1.67;1.00;;;;;;;24.21;24.88;101929.84;5022437;28;20029;-94
2023/06/03 11:08:34;;;;;;;2.65;0.80;;;;;;;24.39;24.31;101919.25;5038851;28;20032;-92
2023/06/03 11:11:02;;;;;;;2.97;1.00;;;;;;;24.82;24.18;101934.38;5057364;28;20033;-89
2023/06/03 11:13:44;;;;;;;1.45;0.75;;;;;;;25.06;24.52;101918.97;5039231;28;20120;-95
2023/06/03 11:16:10;;;;;;;3.03;0.90;;;;;;;25.74;22.18;101918.97;5038978;28;20095;-93
2023/06/03 11:18:35;;;;;;;3.30;1.00;;;;;;;27.12;20.91;101921.25;5056995;28;20127;-95
2023/06/03 11:21:04;;;;;;;3.03;1.00;;;;;;;29.92;18.58;101926.31;5022866;28;20041;-95
2023/06/03 11:23:44;;;;;;;3.60;1.00;;;;;;;33.07;17.08;101930.66;5039313;28;20373;-96
2023/06/03 11:26:43;;;;;;;3.23;1.03;;;;;;;35.69;16.57;101926.28;5050038;28;20049;-96
2023/06/03 11:29:51;;;;;;;2.70;1.10;;;;;;;38.13;15.22;101918.59;5076729;28;20091;-90
2023/06/03 11:32:24;;;;;;;2.65;1.13;;;;;;;39.27;11.42;101912.88;5058674;28;20422;-87
2023/06/03 11:35:10;;;;;;;2.60;1.00;;;;;;;40.03;10.82;101916.47;5058309;28;20028;-87
2023/06/03 11:37:43;;;;;;;1.95;1.40;;;;;;;40.96;11.32;101919.91;5057283;28;20028;-86
2023/06/03 11:40:09;;;;;;;3.57;1.63;;;;;;;41.44;10.02;101907.41;5058034;28;20028;-86
2023/06/03 11:42:46;;;;;;;2.90;1.88;;;;;;;42.68;11.06;101908.97;5075685;28;20115;-86
2023/06/03 11:45:21;;;;;;;4.40;1.60;;;;;;;42.78;10.05;101910.97;5057899;28;20036;-87
2023/06/03 11:47:48;;;;;;;2.17;1.80;;;;;;;42.88;8.68;101897.88;5075861;28;20024;-87
2023/06/03 11:50:13;;;;;;;4.43;2.00;;;;;;;42.90;8.38;101893.38;5075725;28;20032;-87
2023/06/03 11:52:39;;;;;;;2.67;1.97;;;;;;;43.35;8.50;101901.28;5057546;28;20035;-87
2023/06/03 11:55:07;;;;;;;2.67;2.00;;;;;;;44.05;7.98;101897.47;5058627;28;20449;-87
2023/06/03 11:57:35;;;;;;;3.38;2.17;;;;;;;45.03;7.83;101896.34;5057657;28;20032;-87
2023/06/03 12:00:08;;;;;;;3.45;2.20;;;;;;;44.79;7.59;101885.59;5040877;28;20033;-87
2023/06/03 12:02:46;;;;;;;11.50;2.05;;;;;;;45.09;8.60;101889.72;5058385;28;20039;-87
2023/06/03 12:05:16;;;;;;;4.30;2.40;;;;;;;45.51;7.43;101898.88;5057629;28;20039;-87
2023/06/03 12:07:52;;;;;;;3.58;2.67;;;;;;;46.22;7.04;101881.66;5057960;28;20033;-87
2023/06/03 12:10:18;;;;;;;4.72;2.97;;;;;;;47.02;7.12;101875.06;5058078;28;20032;-87
2023/06/03 12:13:03;;;;;;;3.30;3.00;;;;;;;47.45;8.31;101876.09;5024665;28;20028;-87
2023/06/03 12:15:32;;;;;;;3.40;3.00;;;;;;;46.90;7.13;101870.00;5074913;28;20052;-87
2023/06/03 12:18:05;;;;;;;3.80;3.17;;;;;;;47.62;7.29;101862.53;5057280;28;20033;-87
2023/06/03 12:20:31;;;;;;;4.90;3.65;;;;;;;48.07;6.38;101866.69;5075428;28;20028;-87
2023/06/03 12:23:06;;;;;;;5.77;3.60;;;;;;;48.39;6.96;101867.84;5057372;28;20090;-87
2023/06/03 12:25:33;;;;;;;5.05;3.40;;;;;;;48.54;6.49;101857.53;5056612;28;20408;-87
2023/06/03 12:27:59;;;;;;;9.63;3.83;;;;;;;48.42;6.40;101861.97;5057074;28;20048;-87
2023/06/03 12:30:33;;;;;;;6.60;3.30;;;;;;;49.05;6.64;101870.34;5040678;28;20040;-87
2023/06/03 12:32:59;;;;;;;5.97;3.67;;;;;;;49.45;6.43;101866.97;5074735;28;20059;-87
2023/06/03 12:35:26;;;;;;;4.70;3.90;;;;;;;48.90;6.15;101867.97;5056934;28;20056;-87
2023/06/03 12:38:05;;;;;;;4.50;4.10;;;;;;;50.02;6.42;101855.53;5040159;28;20448;-87